Time;durP1;ratioP1;P1;durP2;ratioP2;P2;SDS_P1;SDS_P2;PMS_P1;PMS_P2;Temp;Humidity;BMP_temperature;BMP_pressure;BME280_temperature;BME280_humidity;BME280_pressure;Samples;Min_cycle;Max_cycle;Signal;HPM_P1;HPM_P2
2023/06/24 00:00:11;;;;;;;16.23;14.50;;;;;;;16.78;100.00;101661.88;4902331;29;20522;-67
2023/06/24 00:02:45;;;;;;;24.60;17.30;;;;;;;16.76;100.00;101664.81;4897796;29;20484;-67
2023/06/24 00:05:14;;;;;;;17.83;14.57;;;;;;;16.64;100.00;101669.38;4898253;29;20409;-67
2023/06/24 00:07:44;;;;;;;18.70;16.43;;;;;;;16.58;100.00;101670.25;4902814;29;20436;-68
2023/06/24 00:10:15;;;;;;;22.80;15.03;;;;;;;16.61;100.00;101678.00;4898255;29;20416;-68
2023/06/24 00:15:46;;;;;;;16.53;14.83;;;;;;;16.51;100.00;101688.53;4878672;29;21110;-68
2023/06/24 00:18:17;;;;;;;20.63;18.43;;;;;;;16.53;100.00;101681.81;4875574;29;20430;-68
2023/06/24 00:20:46;;;;;;;19.10;15.50;;;;;;;16.46;100.00;101685.63;4881714;29;20421;-68
2023/06/24 00:23:24;;;;;;;21.50;16.00;;;;;;;16.27;100.00;101684.72;4875936;29;20453;-69
2023/06/24 00:25:54;;;;;;;23.23;19.13;;;;;;;16.29;100.00;101681.78;4878361;29;20956;-67
2023/06/24 00:28:23;;;;;;;22.83;18.07;;;;;;;16.18;100.00;101687.94;4872255;29;20434;-66
2023/06/24 00:30:53;;;;;;;19.77;17.47;;;;;;;16.00;100.00;101692.25;4891050;29;20726;-69
2023/06/24 00:33:24;;;;;;;25.93;17.43;;;;;;;16.05;100.00;101689.72;4885727;29;21016;-66
2023/06/24 00:35:53;;;;;;;23.00;18.10;;;;;;;16.01;100.00;101688.47;4881189;29;20446;-68
2023/06/24 00:38:22;;;;;;;24.73;19.17;;;;;;;16.00;100.00;101688.69;4881313;29;20875;-67
2023/06/24 00:40:52;;;;;;;21.53;19.20;;;;;;;15.91;100.00;101693.56;4876445;29;20920;-68
2023/06/24 00:43:21;;;;;;;28.43;25.30;;;;;;;16.01;100.00;101691.22;4894151;29;20482;-66
2023/06/24 00:45:50;;;;;;;28.60;18.27;;;;;;;16.06;100.00;101696.00;4879689;29;20507;-67
2023/06/24 00:48:21;;;;;;;21.73;18.53;;;;;;;15.98;100.00;101694.38;4882066;29;20497;-68
2023/06/24 00:50:52;;;;;;;27.20;21.40;;;;;;;15.99;100.00;101700.66;4876056;29;20505;-67
2023/06/24 00:53:24;;;;;;;23.43;20.77;;;;;;;16.01;100.00;101693.94;4892649;29;20422;-68
2023/06/24 00:55:54;;;;;;;30.37;21.67;;;;;;;16.16;100.00;101695.53;4875116;29;20517;-67
2023/06/24 00:58:24;;;;;;;29.37;22.57;;;;;;;16.07;100.00;101697.69;4876088;29;20491;-67
2023/06/24 01:00:57;;;;;;;24.97;21.30;;;;;;;16.01;100.00;101701.28;4874861;29;20472;-68
2023/06/24 01:03:29;;;;;;;26.27;21.77;;;;;;;15.91;100.00;101696.31;4884654;29;20421;-68
2023/06/24 01:06:00;;;;;;;29.30;23.17;;;;;;;15.88;100.00;101698.63;4897591;29;20440;-67
2023/06/24 01:08:30;;;;;;;35.23;28.70;;;;;;;15.89;100.00;101700.28;4878478;29;20913;-66
2023/06/24 01:10:59;;;;;;;26.87;23.63;;;;;;;15.86;100.00;101698.84;4892601;29;20461;-67
2023/06/24 01:13:28;;;;;;;31.13;25.50;;;;;;;15.85;100.00;101693.59;4876451;29;20554;-66
2023/06/24 01:16:01;;;;;;;27.10;22.57;;;;;;;15.77;100.00;101691.97;4881455;29;20534;-68
2023/06/24 01:18:40;;;;;;;26.50;22.13;;;;;;;15.76;100.00;101690.28;4879888;29;20834;-69
2023/06/24 01:21:17;;;;;;;27.83;24.67;;;;;;;15.88;100.00;101685.81;4882310;29;20484;-68
2023/06/24 01:24:14;;;;;;;34.23;25.50;;;;;;;15.85;100.00;101685.41;4902939;29;20563;-66
2023/06/24 01:27:26;;;;;;;35.70;22.67;;;;;;;15.86;100.00;101682.47;4875775;29;20463;-68
2023/06/24 01:30:23;;;;;;;33.50;26.93;;;;;;;15.89;100.00;101687.47;4878966;29;20435;-67
2023/06/24 01:32:57;;;;;;;30.67;25.23;;;;;;;15.82;100.00;101677.66;4883297;29;20893;-65
2023/06/24 01:35:33;;;;;;;27.80;23.67;;;;;;;15.82;100.00;101683.97;4878983;29;20469;-69
2023/06/24 01:38:11;;;;;;;30.43;24.17;;;;;;;15.67;100.00;101677.94;4886178;29;20433;-69
2023/06/24 01:40:44;;;;;;;30.00;24.20;;;;;;;15.74;100.00;101675.16;4876050;29;20436;-68
2023/06/24 01:43:16;;;;;;;32.13;23.87;;;;;;;15.77;100.00;101680.22;4885212;29;20437;-67
2023/06/24 01:45:51;;;;;;;28.10;23.83;;;;;;;15.67;100.00;101682.56;4878849;29;20497;-68
2023/06/24 01:48:26;;;;;;;26.77;21.87;;;;;;;15.62;100.00;101683.22;4876871;29;20779;-70
2023/06/24 01:51:00;;;;;;;29.70;23.43;;;;;;;15.54;100.00;101678.00;4880790;29;20506;-66
2023/06/24 01:53:29;;;;;;;29.87;23.33;;;;;;;15.61;100.00;101681.53;4896224;29;20447;-67
2023/06/24 01:56:01;;;;;;;32.70;22.90;;;;;;;15.58;100.00;101682.81;4877644;29;20441;-69
2023/06/24 01:58:33;;;;;;;33.83;24.57;;;;;;;15.49;100.00;101684.06;4893809;29;20423;-68
2023/06/24 02:01:03;;;;;;;29.07;23.17;;;;;;;15.46;100.00;101679.03;4884613;29;20467;-67
2023/06/24 02:03:35;;;;;;;25.03;22.37;;;;;;;15.49;100.00;101683.25;4880635;29;20468;-68
2023/06/24 02:06:09;;;;;;;26.07;22.70;;;;;;;15.48;100.00;101673.38;4882735;29;20453;-69
2023/06/24 02:08:41;;;;;;;27.50;23.03;;;;;;;15.41;100.00;101678.00;4887596;29;20410;-67
2023/06/24 02:11:11;;;;;;;27.27;23.47;;;;;;;15.47;100.00;101678.00;4891245;29;20447;-66
2023/06/24 02:13:43;;;;;;;33.30;23.93;;;;;;;15.47;100.00;101679.88;4880737;29;20430;-67
2023/06/24 02:16:19;;;;;;;32.50;22.70;;;;;;;15.37;100.00;101682.22;4873714;29;20473;-66
2023/06/24 02:18:50;;;;;;;27.13;21.20;;;;;;;15.41;100.00;101683.47;4873783;29;20466;-67
2023/06/24 02:21:20;;;;;;;25.80;22.07;;;;;;;15.35;100.00;101676.13;4880502;29;20509;-66
2023/06/24 02:23:50;;;;;;;25.60;22.80;;;;;;;15.30;100.00;101671.31;4890936;29;20514;-68
2023/06/24 02:26:20;;;;;;;27.07;21.80;;;;;;;15.33;100.00;101668.19;4891219;29;21066;-67
2023/06/24 02:28:51;;;;;;;29.53;21.77;;;;;;;15.26;100.00;101666.50;4879445;29;20428;-68
2023/06/24 02:31:20;;;;;;;25.80;21.10;;;;;;;15.19;100.00;101664.66;4896136;29;20966;-67
2023/06/24 02:33:51;;;;;;;24.83;20.20;;;;;;;15.12;100.00;101672.00;4882724;29;20414;-67
2023/06/24 02:36:21;;;;;;;23.63;21.10;;;;;;;15.14;100.00;101666.34;4885104;29;21136;-69
2023/06/24 02:38:50;;;;;;;22.97;18.23;;;;;;;15.09;100.00;101672.44;4890558;29;20472;-67
2023/06/24 02:41:19;;;;;;;24.20;19.20;;;;;;;15.15;100.00;101668.84;4902915;29;20517;-69
2023/06/24 02:43:49;;;;;;;22.53;18.17;;;;;;;15.06;100.00;101678.31;4880760;29;20443;-68
2023/06/24 02:46:19;;;;;;;20.97;18.77;;;;;;;15.09;100.00;101682.50;4883088;29;20863;-67
2023/06/24 02:48:52;;;;;;;26.27;20.93;;;;;;;15.03;100.00;101688.81;4880281;29;20474;-66
2023/06/24 02:51:21;;;;;;;21.90;18.77;;;;;;;15.12;100.00;101693.81;4893724;29;20814;-67
2023/06/24 02:53:51;;;;;;;21.77;19.03;;;;;;;15.06;100.00;101685.63;4895229;29;20425;-68
2023/06/24 02:56:28;;;;;;;22.07;19.40;;;;;;;15.16;100.00;101695.06;4896061;29;20461;-68
2023/06/24 02:58:57;;;;;;;22.27;18.07;;;;;;;15.22;100.00;101694.22;4900933;29;20467;-65
2023/06/24 03:01:28;;;;;;;25.10;18.50;;;;;;;15.20;100.00;101701.75;4900045;29;20452;-68
2023/06/24 03:04:00;;;;;;;21.93;17.50;;;;;;;15.11;100.00;101703.03;4882372;29;20493;-66
2023/06/24 03:06:29;;;;;;;24.63;19.70;;;;;;;15.20;100.00;101707.22;4904695;29;20470;-66
2023/06/24 03:09:03;;;;;;;25.70;18.43;;;;;;;15.38;100.00;101713.91;4891514;29;20417;-68
2023/06/24 03:11:40;;;;;;;21.60;18.73;;;;;;;15.48;100.00;101711.56;4885664;29;20447;-69
2023/06/24 03:14:10;;;;;;;25.50;19.30;;;;;;;15.39;100.00;101721.88;4895623;29;20864;-68
2023/06/24 03:16:43;;;;;;;18.70;16.67;;;;;;;15.40;100.00;101717.25;4897509;29;20498;-69
2023/06/24 03:19:17;;;;;;;20.40;17.33;;;;;;;15.32;100.00;101720.19;4889162;29;20511;-69
2023/06/24 03:21:46;;;;;;;20.27;16.90;;;;;;;15.33;100.00;101719.16;4879235;29;20446;-67
2023/06/24 03:24:17;;;;;;;23.10;17.60;;;;;;;15.21;100.00;101719.81;4888082;29;20443;-67
2023/06/24 03:26:55;;;;;;;18.17;16.33;;;;;;;15.18;100.00;101714.78;4879127;29;20458;-67
2023/06/24 03:29:29;;;;;;;24.73;18.30;;;;;;;15.26;100.00;101726.50;4897914;29;20433;-66
2023/06/24 03:32:09;;;;;;;19.57;16.47;;;;;;;15.27;100.00;101733.63;4880696;29;20458;-68
2023/06/24 03:34:39;;;;;;;22.20;16.13;;;;;;;15.22;100.00;101729.66;4886488;29;20439;-66
2023/06/24 03:37:11;;;;;;;17.80;15.40;;;;;;;15.29;100.00;101732.38;4881270;29;20488;-66
2023/06/24 03:39:42;;;;;;;22.53;18.93;;;;;;;15.28;100.00;101732.59;4886893;29;20484;-67
2023/06/24 03:42:11;;;;;;;19.63;17.30;;;;;;;15.34;100.00;101731.75;4898351;29;20477;-67
2023/06/24 03:44:40;;;;;;;21.40;16.97;;;;;;;15.25;100.00;101735.75;4901725;29;21040;-67
2023/06/24 03:47:09;;;;;;;19.20;14.83;;;;;;;15.30;100.00;101738.69;4884843;29;20458;-67
2023/06/24 03:49:40;;;;;;;18.03;15.40;;;;;;;15.33;100.00;101744.53;4897949;29;20422;-66
2023/06/24 03:52:09;;;;;;;17.70;15.90;;;;;;;15.26;100.00;101740.97;4895986;29;20604;-67
2023/06/24 03:54:39;;;;;;;22.90;16.30;;;;;;;15.40;100.00;101744.50;4895339;29;20425;-68
2023/06/24 03:57:09;;;;;;;17.30;14.10;;;;;;;15.58;100.00;101748.31;4890223;29;20543;-69
2023/06/24 03:59:38;;;;;;;20.70;16.20;;;;;;;16.36;100.00;101748.97;4885851;29;20431;-68
2023/06/24 04:02:08;;;;;;;20.50;17.40;;;;;;;17.53;100.00;101744.63;4895729;29;20451;-68
2023/06/24 04:04:39;;;;;;;18.47;15.83;;;;;;;18.19;100.00;101751.00;4896650;29;20447;-68
2023/06/24 04:07:08;;;;;;;17.00;13.20;;;;;;;17.96;100.00;101758.28;4895980;29;20510;-68
2023/06/24 04:09:39;;;;;;;16.00;14.30;;;;;;;17.48;100.00;101764.47;4894141;29;20418;-68
2023/06/24 04:12:09;;;;;;;15.13;13.43;;;;;;;17.35;100.00;101756.41;4882249;29;20454;-67
2023/06/24 04:14:38;;;;;;;18.20;13.80;;;;;;;17.24;100.00;101751.66;4893662;29;20516;-68
2023/06/24 04:17:07;;;;;;;16.47;14.53;;;;;;;16.99;100.00;101753.59;4883548;29;20503;-68
2023/06/24 04:19:36;;;;;;;16.23;13.50;;;;;;;16.89;100.00;101754.91;4878756;29;20442;-68
2023/06/24 04:22:06;;;;;;;14.77;13.30;;;;;;;16.66;100.00;101760.16;4890507;29;20437;-68
2023/06/24 04:24:35;;;;;;;15.40;13.70;;;;;;;16.94;100.00;101763.28;4875375;29;20439;-68
2023/06/24 04:27:05;;;;;;;14.67;13.00;;;;;;;18.03;100.00;101767.22;4879634;29;20451;-65
2023/06/24 04:29:34;;;;;;;16.00;13.30;;;;;;;18.31;100.00;101772.94;4879178;29;20422;-68
2023/06/24 04:32:03;;;;;;;15.23;13.70;;;;;;;18.61;96.06;101771.06;4885995;29;20542;-66
2023/06/24 04:34:35;;;;;;;15.33;12.63;;;;;;;19.50;90.98;101774.66;4880784;29;20783;-67
2023/06/24 04:37:06;;;;;;;15.20;12.67;;;;;;;20.46;87.82;101776.69;4896874;29;20441;-68
2023/06/24 04:39:35;;;;;;;13.53;12.13;;;;;;;21.16;81.51;101782.59;4899198;29;20471;-66
2023/06/24 04:42:05;;;;;;;16.93;11.53;;;;;;;21.14;82.76;101779.28;4872631;29;20469;-68
2023/06/24 04:44:34;;;;;;;13.30;11.40;;;;;;;21.27;76.49;101783.59;4879482;29;20478;-68
2023/06/24 04:47:04;;;;;;;13.67;10.70;;;;;;;20.74;80.35;101779.41;4880788;29;20853;-66
2023/06/24 04:49:33;;;;;;;13.67;11.40;;;;;;;19.80;84.18;101774.50;4884363;29;20826;-70
2023/06/24 04:52:02;;;;;;;14.73;12.27;;;;;;;19.09;88.85;101778.31;4878628;29;20487;-68
2023/06/24 04:54:32;;;;;;;11.73;10.60;;;;;;;18.71;89.45;101780.63;4885275;29;20680;-67
2023/06/24 04:57:01;;;;;;;18.27;12.33;;;;;;;18.38;94.05;101781.94;4884951;29;20958;-66
2023/06/24 04:59:30;;;;;;;14.00;12.23;;;;;;;20.02;86.91;101781.00;4877981;29;20402;-68
2023/06/24 05:01:59;;;;;;;13.10;11.70;;;;;;;20.33;81.07;101798.97;4882759;29;20440;-66
2023/06/24 05:04:28;;;;;;;14.73;12.67;;;;;;;21.07;77.82;101799.75;4880825;29;20929;-67
2023/06/24 05:06:57;;;;;;;12.47;10.03;;;;;;;21.24;74.69;101804.22;4893330;29;20533;-66
2023/06/24 05:09:26;;;;;;;12.77;11.43;;;;;;;21.83;73.87;101810.06;4890412;29;20438;-64
2023/06/24 05:11:57;;;;;;;14.87;11.70;;;;;;;22.67;70.85;101807.75;4879403;29;20501;-67
2023/06/24 05:14:26;;;;;;;12.73;10.60;;;;;;;23.27;67.34;101806.66;4883293;29;20842;-64
2023/06/24 05:16:55;;;;;;;14.13;11.20;;;;;;;22.88;67.27;101797.78;4873704;29;20475;-67
2023/06/24 05:19:24;;;;;;;14.00;11.10;;;;;;;22.82;66.76;101799.66;4881808;29;20440;-67
2023/06/24 05:21:53;;;;;;;14.10;10.33;;;;;;;22.13;68.76;101800.53;4875878;29;20470;-69
2023/06/24 05:24:22;;;;;;;12.03;10.20;;;;;;;22.37;67.82;101804.66;4886013;29;20789;-64
2023/06/24 05:26:52;;;;;;;16.10;11.17;;;;;;;22.05;67.76;101807.31;4877548;29;20452;-67
2023/06/24 05:29:22;;;;;;;15.87;10.87;;;;;;;22.12;69.78;101809.91;4880525;29;20541;-67
2023/06/24 05:31:51;;;;;;;15.97;10.87;;;;;;;22.12;68.89;101804.38;4881634;29;20435;-66
2023/06/24 05:34:20;;;;;;;11.83;9.80;;;;;;;22.27;68.98;101810.91;4885511;29;20446;-70
2023/06/24 05:36:49;;;;;;;13.63;11.20;;;;;;;21.95;71.79;101812.69;4893986;29;21101;-69
2023/06/24 05:39:19;;;;;;;13.70;10.93;;;;;;;21.27;73.78;101811.13;4878382;29;20438;-67
2023/06/24 05:41:48;;;;;;;11.87;10.47;;;;;;;19.83;79.50;101815.19;4881889;29;20420;-67
2023/06/24 05:44:18;;;;;;;11.87;10.70;;;;;;;19.57;83.05;101815.69;4881740;29;20951;-66
2023/06/24 05:46:48;;;;;;;13.37;10.97;;;;;;;18.88;86.93;101812.63;4876380;29;20505;-67
2023/06/24 05:49:17;;;;;;;13.13;11.73;;;;;;;18.57;88.90;101818.38;4880302;29;20477;-66
2023/06/24 05:51:46;;;;;;;14.37;11.47;;;;;;;18.49;91.62;101824.16;4879992;29;20412;-66
2023/06/24 05:54:15;;;;;;;11.87;10.17;;;;;;;18.68;89.26;101823.06;4871761;29;20718;-67
2023/06/24 05:56:44;;;;;;;12.73;11.40;;;;;;;18.46;91.15;101830.09;4877221;29;20451;-67
2023/06/24 05:59:13;;;;;;;19.43;12.10;;;;;;;18.09;93.01;101821.09;4873771;29;20963;-68
2023/06/24 06:01:41;;;;;;;12.80;11.43;;;;;;;18.16;95.57;101821.81;4877312;29;20407;-69
2023/06/24 06:04:12;;;;;;;15.80;11.23;;;;;;;18.05;94.36;101817.16;4883120;29;20450;-67
2023/06/24 06:06:41;;;;;;;15.80;12.23;;;;;;;18.33;96.17;101820.16;4888662;29;20457;-67
2023/06/24 06:09:10;;;;;;;20.07;11.90;;;;;;;18.47;94.29;101820.81;4886847;29;20937;-66
2023/06/24 06:11:39;;;;;;;14.40;11.53;;;;;;;18.47;95.45;101816.16;4883876;29;20475;-67
2023/06/24 06:14:08;;;;;;;13.90;11.37;;;;;;;18.69;93.85;101813.75;4886850;29;20414;-66
2023/06/24 06:16:37;;;;;;;16.27;10.13;;;;;;;18.57;93.28;101812.88;4887899;29;20428;-66
2023/06/24 06:19:06;;;;;;;17.70;12.27;;;;;;;18.65;92.35;101802.44;4891679;29;20462;-66
2023/06/24 06:21:38;;;;;;;14.23;11.47;;;;;;;18.75;93.19;101807.34;4893826;29;20442;-68
2023/06/24 06:24:08;;;;;;;13.50;11.07;;;;;;;18.86;91.91;101808.44;4892752;29;20446;-66
2023/06/24 06:26:41;;;;;;;15.90;11.87;;;;;;;18.95;90.84;101815.25;4874660;29;20438;-67
2023/06/24 06:29:10;;;;;;;11.60;10.40;;;;;;;18.85;92.77;101807.59;4875990;29;20952;-66
2023/06/24 06:31:39;;;;;;;14.93;12.20;;;;;;;19.18;90.34;101818.03;4880732;29;20409;-67
2023/06/24 06:34:08;;;;;;;13.10;9.97;;;;;;;19.36;89.57;101820.69;4877576;29;20417;-65
2023/06/24 06:36:39;;;;;;;14.50;11.37;;;;;;;19.61;91.97;101817.72;4895148;29;20833;-67
2023/06/24 06:39:08;;;;;;;14.57;11.00;;;;;;;19.79;86.62;101825.00;4882372;29;20482;-66
2023/06/24 06:41:37;;;;;;;15.60;12.13;;;;;;;19.74;86.94;101819.41;4881112;29;20409;-67
2023/06/24 06:44:06;;;;;;;16.47;12.73;;;;;;;19.78;86.67;101821.44;4884230;29;20413;-68
2023/06/24 06:46:35;;;;;;;14.23;11.03;;;;;;;19.37;85.86;101822.34;4885406;29;20505;-67
2023/06/24 06:49:05;;;;;;;10.70;9.60;;;;;;;19.35;87.20;101823.69;4878058;29;20845;-65
2023/06/24 06:51:34;;;;;;;11.13;10.00;;;;;;;19.52;87.02;101816.41;4877904;29;20410;-68
2023/06/24 06:54:05;;;;;;;12.30;10.47;;;;;;;19.55;86.25;101812.38;4886391;29;20405;-68
2023/06/24 06:56:34;;;;;;;10.47;9.33;;;;;;;19.81;87.06;101806.34;4877764;29;20482;-67
2023/06/24 06:59:03;;;;;;;17.40;10.50;;;;;;;19.88;84.61;101807.06;4891820;29;20475;-69
2023/06/24 07:01:32;;;;;;;10.43;9.33;;;;;;;19.57;82.76;101810.22;4903562;29;20439;-66
2023/06/24 07:04:01;;;;;;;13.43;10.67;;;;;;;19.47;84.90;101808.06;4880897;29;20414;-66
2023/06/24 07:06:32;;;;;;;13.30;10.10;;;;;;;19.53;86.10;101810.69;4880376;29;20466;-65
2023/06/24 07:09:01;;;;;;;18.33;11.03;;;;;;;20.06;84.69;101809.66;4880696;29;20523;-68
2023/06/24 07:11:32;;;;;;;14.53;11.07;;;;;;;20.43;81.53;101812.91;4879242;29;20406;-66
2023/06/24 07:14:01;;;;;;;15.40;10.73;;;;;;;20.67;81.08;101813.66;4874600;29;20829;-68
2023/06/24 07:16:30;;;;;;;12.07;10.50;;;;;;;20.85;80.23;101813.44;4878572;29;20937;-65
2023/06/24 07:18:59;;;;;;;9.53;8.23;;;;;;;20.71;75.23;101823.06;4883842;29;21003;-66
2023/06/24 07:21:28;;;;;;;11.50;8.87;;;;;;;20.26;76.97;101821.06;4882178;29;20421;-67
2023/06/24 07:23:57;;;;;;;13.90;8.67;;;;;;;20.15;78.85;101824.69;4884960;29;20443;-68
2023/06/24 07:26:28;;;;;;;10.33;9.03;;;;;;;20.63;77.69;101834.44;4879647;29;20846;-66
2023/06/24 07:29:00;;;;;;;11.10;8.90;;;;;;;20.39;77.42;101834.56;4877808;29;20425;-67
2023/06/24 07:31:37;;;;;;;11.67;8.47;;;;;;;20.47;80.09;101838.84;4888342;29;20777;-69
2023/06/24 07:34:06;;;;;;;10.50;8.30;;;;;;;20.27;78.24;101839.25;4880746;29;20890;-68
2023/06/24 07:36:35;;;;;;;9.03;7.67;;;;;;;19.90;78.37;101837.88;4886963;29;20790;-69
2023/06/24 07:39:05;;;;;;;8.97;8.07;;;;;;;20.36;76.35;101843.31;4884372;29;20999;-67
2023/06/24 07:41:34;;;;;;;7.67;6.93;;;;;;;20.08;76.96;101835.00;4876130;29;20766;-66
2023/06/24 07:44:05;;;;;;;9.87;8.57;;;;;;;20.53;76.96;101837.00;4879556;29;20447;-65
2023/06/24 07:46:34;;;;;;;11.97;9.53;;;;;;;20.67;75.24;101836.47;4884874;29;20462;-68
2023/06/24 07:49:03;;;;;;;9.27;7.43;;;;;;;20.63;73.63;101846.28;4877224;29;20423;-65
2023/06/24 07:51:34;;;;;;;9.07;7.03;;;;;;;20.16;73.80;101836.50;4879535;29;20897;-65
2023/06/24 07:54:04;;;;;;;8.63;7.83;;;;;;;20.34;74.57;101839.94;4883301;29;20809;-68
2023/06/24 07:56:33;;;;;;;8.93;7.83;;;;;;;20.62;74.79;101846.56;4877617;29;20539;-65
2023/06/24 07:59:02;;;;;;;8.50;7.70;;;;;;;20.61;73.33;101851.22;4879027;29;20961;-67
2023/06/24 08:01:32;;;;;;;10.20;7.53;;;;;;;21.04;71.84;101850.63;4880817;29;20420;-66
2023/06/24 08:04:01;;;;;;;7.57;6.87;;;;;;;20.57;70.56;101852.81;4877172;29;20444;-64
2023/06/24 08:06:31;;;;;;;9.17;8.10;;;;;;;20.97;71.18;101852.69;4883653;29;20522;-67
2023/06/24 08:09:00;;;;;;;8.80;7.90;;;;;;;21.01;69.80;101848.38;4879961;29;20435;-66
2023/06/24 08:11:29;;;;;;;8.03;6.93;;;;;;;21.14;70.23;101850.84;4883589;29;20446;-66
2023/06/24 08:13:58;;;;;;;8.73;7.83;;;;;;;21.22;67.43;101850.44;4878748;29;20876;-66
2023/06/24 08:16:27;;;;;;;10.30;8.33;;;;;;;21.01;68.55;101845.63;4890920;29;20812;-65
2023/06/24 08:18:57;;;;;;;8.73;7.20;;;;;;;21.28;65.34;101853.25;4879278;29;20849;-63
2023/06/24 08:21:26;;;;;;;7.43;6.30;;;;;;;21.22;66.79;101853.19;4873575;29;20787;-65
2023/06/24 08:23:55;;;;;;;10.37;7.40;;;;;;;21.24;67.33;101852.94;4866265;29;20440;-68
2023/06/24 08:26:24;;;;;;;10.83;9.83;;;;;;;21.42;66.99;101863.69;4867938;29;20528;-67
2023/06/24 08:28:54;;;;;;;8.60;7.70;;;;;;;21.42;66.74;101869.19;4884528;29;20813;-67
2023/06/24 08:31:24;;;;;;;9.13;8.20;;;;;;;21.47;66.63;101872.03;4881893;29;20534;-67
2023/06/24 08:33:54;;;;;;;8.13;7.43;;;;;;;21.50;64.50;101866.00;4880071;29;20475;-67
2023/06/24 08:36:28;;;;;;;7.30;6.60;;;;;;;21.70;63.42;101865.50;4877432;29;21060;-67
2023/06/24 08:38:57;;;;;;;8.33;7.60;;;;;;;22.14;63.94;101865.59;4873815;29;20550;-70
2023/06/24 08:41:26;;;;;;;7.67;6.90;;;;;;;22.34;61.52;101866.69;4888671;29;20443;-67
2023/06/24 08:43:56;;;;;;;6.20;5.60;;;;;;;22.32;63.20;101862.50;4877346;29;20487;-68
2023/06/24 08:46:26;;;;;;;10.30;7.20;;;;;;;22.59;61.08;101866.16;4872748;29;20502;-66
2023/06/24 08:49:09;;;;;;;7.23;6.33;;;;;;;22.15;61.46;101868.09;4875317;29;20394;-66
2023/06/24 08:51:41;;;;;;;7.47;6.50;;;;;;;21.83;60.54;101867.91;4872366;29;20932;-67
2023/06/24 08:54:11;;;;;;;12.97;6.70;;;;;;;21.80;59.31;101868.41;4882040;29;20836;-68
2023/06/24 08:56:42;;;;;;;6.30;5.70;;;;;;;21.90;61.50;101860.28;4873158;29;20459;-67
2023/06/24 08:59:11;;;;;;;6.77;6.17;;;;;;;22.05;62.84;101868.81;4877253;29;20503;-67
2023/06/24 09:01:40;;;;;;;7.80;7.10;;;;;;;22.02;64.05;101874.84;4877261;29;21047;-65
2023/06/24 09:04:09;;;;;;;9.10;8.17;;;;;;;21.97;62.98;101872.00;4879285;29;20471;-67
2023/06/24 09:06:39;;;;;;;11.13;6.10;;;;;;;21.80;61.04;101870.31;4880784;29;20468;-66
2023/06/24 09:09:19;;;;;;;7.90;7.03;;;;;;;21.31;61.50;101874.78;4882407;29;20431;-66
2023/06/24 09:11:55;;;;;;;7.33;6.63;;;;;;;21.69;62.14;101869.34;4878849;29;20490;-66
2023/06/24 09:14:25;;;;;;;6.77;6.07;;;;;;;21.79;61.13;101875.00;4884828;29;20496;-66
2023/06/24 09:16:56;;;;;;;8.70;7.73;;;;;;;20.99;63.24;101880.81;4878435;29;20987;-65
2023/06/24 09:19:28;;;;;;;12.00;7.40;;;;;;;21.12;64.15;101863.13;4881072;29;20469;-63
2023/06/24 09:22:02;;;;;;;8.40;7.60;;;;;;;21.81;61.68;101872.00;4873702;29;20954;-65
2023/06/24 09:24:32;;;;;;;18.97;7.93;;;;;;;22.28;61.07;101875.16;4878150;29;20437;-65
2023/06/24 09:27:02;;;;;;;7.73;6.97;;;;;;;22.23;59.08;101875.09;4865229;29;20902;-66
2023/06/24 09:29:34;;;;;;;10.67;6.20;;;;;;;22.23;59.27;101880.59;4870178;29;20423;-66
2023/06/24 09:32:06;;;;;;;9.27;8.30;;;;;;;22.58;59.15;101871.94;4876583;29;20531;-65
2023/06/24 09:34:35;;;;;;;7.77;7.07;;;;;;;22.28;57.66;101858.59;4880516;29;20990;-65
2023/06/24 09:37:06;;;;;;;8.20;6.10;;;;;;;22.19;59.39;101862.91;4884490;29;20485;-65
2023/06/24 09:39:41;;;;;;;7.30;5.70;;;;;;;21.92;58.87;101863.63;4870559;29;20919;-65
2023/06/24 09:42:11;;;;;;;6.33;5.80;;;;;;;21.70;58.27;101862.75;4874019;29;20446;-68
2023/06/24 09:44:41;;;;;;;9.53;6.00;;;;;;;21.91;58.14;101861.97;4876037;29;21143;-67
2023/06/24 09:47:11;;;;;;;7.80;7.07;;;;;;;22.35;57.23;101856.50;4887759;29;20463;-66
2023/06/24 09:49:40;;;;;;;9.73;6.17;;;;;;;23.00;55.65;101861.91;4879911;29;20482;-66
2023/06/24 09:52:15;;;;;;;5.70;5.20;;;;;;;22.87;54.78;101868.72;4879527;29;20996;-66
2023/06/24 09:54:47;;;;;;;6.03;5.23;;;;;;;22.52;56.01;101866.34;4878094;29;20430;-66
2023/06/24 09:57:19;;;;;;;6.03;5.00;;;;;;;22.44;55.81;101860.47;4882528;29;20819;-65
2023/06/24 09:59:49;;;;;;;7.53;5.57;;;;;;;22.76;56.72;101857.81;4875981;29;20502;-64
2023/06/24 10:02:20;;;;;;;5.70;5.10;;;;;;;23.03;54.88;101852.28;4880701;29;20885;-67
2023/06/24 10:04:51;;;;;;;7.43;6.13;;;;;;;23.06;54.42;101851.75;4886173;29;20435;-64
2023/06/24 10:07:21;;;;;;;5.70;5.30;;;;;;;22.76;53.53;101852.28;4882930;29;20998;-65
2023/06/24 10:09:51;;;;;;;5.87;5.17;;;;;;;22.48;54.92;101847.81;4885784;29;20410;-67
2023/06/24 10:12:20;;;;;;;5.57;4.70;;;;;;;22.53;53.61;101853.41;4876866;29;20436;-67
2023/06/24 10:14:50;;;;;;;6.27;5.80;;;;;;;22.22;55.37;101851.38;4875565;29;20533;-65
2023/06/24 10:17:19;;;;;;;8.50;6.50;;;;;;;22.39;56.92;101841.09;4877953;29;20463;-67
2023/06/24 10:19:48;;;;;;;7.30;6.60;;;;;;;22.95;56.75;101845.31;4877400;29;20589;-67
2023/06/24 10:22:18;;;;;;;5.73;5.00;;;;;;;22.80;57.06;101839.66;4878357;29;20471;-65
2023/06/24 10:24:49;;;;;;;7.73;5.60;;;;;;;22.67;54.75;101842.78;4881070;29;20431;-67
2023/06/24 10:27:21;;;;;;;8.03;6.90;;;;;;;22.92;56.03;101841.16;4895423;29;20849;-67
2023/06/24 10:29:52;;;;;;;6.70;6.10;;;;;;;23.33;55.34;101841.53;4893612;29;20474;-66
2023/06/24 10:32:22;;;;;;;6.17;5.60;;;;;;;23.19;54.64;101834.78;4882639;29;20944;-66
2023/06/24 10:34:57;;;;;;;10.13;7.60;;;;;;;23.32;54.97;101837.94;4880661;29;20804;-67
2023/06/24 10:37:27;;;;;;;7.30;6.60;;;;;;;23.04;55.46;101826.38;4870225;29;20838;-63
2023/06/24 10:39:59;;;;;;;7.30;5.40;;;;;;;22.94;55.69;101838.16;4877482;29;20531;-66
2023/06/24 10:42:38;;;;;;;8.80;5.10;;;;;;;22.99;55.88;101829.91;4876257;29;20443;-64
2023/06/24 10:45:19;;;;;;;5.90;5.30;;;;;;;22.85;55.23;101823.97;4878631;29;20485;-65
2023/06/24 10:47:52;;;;;;;6.90;6.30;;;;;;;23.13;55.87;101819.25;4877749;29;20455;-66
2023/06/24 10:50:23;;;;;;;8.87;7.43;;;;;;;23.14;56.15;101820.94;4891931;29;20439;-66
2023/06/24 10:52:55;;;;;;;6.50;5.07;;;;;;;22.92;53.27;101824.59;4878960;29;20427;-66
2023/06/24 10:55:27;;;;;;;8.57;7.70;;;;;;;23.28;54.59;101811.94;4880866;29;20841;-65
2023/06/24 10:58:07;;;;;;;5.97;4.73;;;;;;;23.52;53.11;101809.66;4880902;29;20546;-67
2023/06/24 11:00:40;;;;;;;7.40;6.80;;;;;;;22.93;55.90;101815.22;4887542;29;21021;-65
2023/06/24 11:03:13;;;;;;;9.73;7.63;;;;;;;22.99;55.49;101815.28;4882800;29;20967;-65
2023/06/24 11:05:43;;;;;;;7.17;6.50;;;;;;;23.16;56.44;101818.72;4887417;29;20434;-66
2023/06/24 11:08:13;;;;;;;6.60;6.10;;;;;;;23.38;54.72;101813.94;4880196;29;21016;-68
2023/06/24 11:10:48;;;;;;;7.07;5.60;;;;;;;23.35;54.56;101811.69;4882780;29;20431;-66
2023/06/24 11:13:21;;;;;;;8.10;6.10;;;;;;;23.49;53.78;101812.94;4885480;29;20529;-66
2023/06/24 11:15:53;;;;;;;6.53;5.73;;;;;;;23.63;53.53;101808.59;4882091;29;20451;-67
2023/06/24 11:18:22;;;;;;;6.60;6.00;;;;;;;23.47;54.00;101808.78;4885924;29;20533;-67
2023/06/24 11:20:55;;;;;;;6.10;5.50;;;;;;;23.78;54.21;101811.44;4886051;29;20459;-68
2023/06/24 11:23:24;;;;;;;6.60;5.83;;;;;;;23.94;52.84;101825.34;4883827;29;20443;-63
2023/06/24 11:25:56;;;;;;;6.33;5.73;;;;;;;23.34;53.28;101821.91;4878541;29;20435;-63
2023/06/24 11:28:25;;;;;;;6.73;6.13;;;;;;;23.65;54.16;101809.16;4887379;29;20463;-65
2023/06/24 11:30:54;;;;;;;8.63;7.57;;;;;;;23.69;52.27;101802.00;4883788;29;20474;-64